createdAt,value
2017-12-02T00:02:18.877Z,27.47
2017-12-02T00:04:44.987Z,29.27
2017-12-02T00:07:11.092Z,30.03
2017-12-02T00:09:37.245Z,24.70
2017-12-02T00:12:03.311Z,21.60
2017-12-02T00:14:29.404Z,27.27
2017-12-02T00:16:55.537Z,26.10
2017-12-02T00:19:21.739Z,24.10
2017-12-02T00:21:47.856Z,23.27
2017-12-02T00:24:13.885Z,20.13
2017-12-02T00:26:40.037Z,25.67
2017-12-02T00:29:06.144Z,24.80
2017-12-02T00:31:32.359Z,28.10
2017-12-02T00:33:58.480Z,25.27
2017-12-02T00:36:24.696Z,24.50
2017-12-02T00:38:50.760Z,23.67
2017-12-02T00:41:16.845Z,23.30
2017-12-02T00:43:42.993Z,22.83
2017-12-02T00:46:09.185Z,22.77
2017-12-02T00:48:35.320Z,26.27
2017-12-02T00:51:01.438Z,22.47
2017-12-02T00:53:27.643Z,25.20
2017-12-02T00:55:53.792Z,26.47
2017-12-02T00:58:19.892Z,21.40
2017-12-02T01:00:46.016Z,21.90
2017-12-02T01:03:12.113Z,24.67
2017-12-02T01:05:38.231Z,21.70
2017-12-02T01:08:04.332Z,22.07
2017-12-02T01:10:30.520Z,21.50
2017-12-02T01:12:56.624Z,26.10
2017-12-02T01:15:22.725Z,21.70
2017-12-02T01:17:48.876Z,28.37
2017-12-02T01:20:15.012Z,23.27
2017-12-02T01:22:41.175Z,25.20
2017-12-02T01:25:07.323Z,22.20
2017-12-02T01:27:33.441Z,18.90
2017-12-02T01:29:59.565Z,19.50
2017-12-02T01:32:25.720Z,22.90
2017-12-02T01:34:51.837Z,20.27
2017-12-02T01:37:17.948Z,22.90
2017-12-02T01:39:44.116Z,22.20
2017-12-02T01:42:10.207Z,24.13
2017-12-02T01:44:36.306Z,22.07
2017-12-02T01:47:02.435Z,22.70
2017-12-02T01:49:28.501Z,21.47
2017-12-02T01:51:54.652Z,26.27
2017-12-02T01:54:20.824Z,25.13
2017-12-02T01:56:47.447Z,24.73
2017-12-02T01:59:13.624Z,25.77
2017-12-02T02:01:39.807Z,23.50
2017-12-02T02:04:05.939Z,24.23
2017-12-02T02:06:32.054Z,19.80
2017-12-02T02:08:58.160Z,17.27
2017-12-02T02:11:24.256Z,19.63
2017-12-02T02:13:50.358Z,13.60
2017-12-02T02:16:16.506Z,16.47
2017-12-02T02:18:42.631Z,16.50
2017-12-02T02:21:09.108Z,15.33
2017-12-02T02:23:35.202Z,15.63
2017-12-02T02:26:01.342Z,18.00
2017-12-02T02:28:27.463Z,17.80
2017-12-02T02:30:53.585Z,16.93
2017-12-02T02:33:20.176Z,20.00
2017-12-02T02:35:46.360Z,17.03
2017-12-02T02:38:12.459Z,16.97
2017-12-02T02:40:38.604Z,19.37
2017-12-02T02:43:04.767Z,18.07
2017-12-02T02:45:30.889Z,14.63
2017-12-02T02:47:56.992Z,20.83
2017-12-02T02:50:23.152Z,17.07
2017-12-02T02:52:49.284Z,18.70
2017-12-02T02:55:15.442Z,19.07
2017-12-02T02:57:41.575Z,23.73
2017-12-02T03:00:07.712Z,20.07
2017-12-02T03:02:33.859Z,19.00
2017-12-02T03:04:59.896Z,20.13
2017-12-02T03:07:25.988Z,21.97
2017-12-02T03:09:52.144Z,24.17
2017-12-02T03:12:18.210Z,20.40
2017-12-02T03:14:44.283Z,22.90
2017-12-02T03:17:10.394Z,20.60
2017-12-02T03:19:36.499Z,17.90
2017-12-02T03:22:02.609Z,19.77
2017-12-02T03:24:28.680Z,17.80
2017-12-02T03:26:54.796Z,15.60
2017-12-02T03:29:20.852Z,14.77
2017-12-02T03:31:46.979Z,17.70
2017-12-02T03:34:13.099Z,18.40
2017-12-02T03:36:39.252Z,18.80
2017-12-02T03:39:05.325Z,19.43
2017-12-02T03:41:32.004Z,23.17
2017-12-02T03:43:58.068Z,18.00
2017-12-02T03:46:24.127Z,23.03
2017-12-02T03:48:50.215Z,20.70
2017-12-02T03:51:16.316Z,23.73
2017-12-02T03:53:42.432Z,20.63
2017-12-02T03:56:08.543Z,24.80
2017-12-02T03:58:34.676Z,18.27
2017-12-02T04:01:00.844Z,19.40
2017-12-02T04:03:26.935Z,27.13
2017-12-02T04:05:53.049Z,21.57
2017-12-02T04:08:19.156Z,23.93
2017-12-02T04:10:45.385Z,19.70
2017-12-02T04:13:11.472Z,18.33
2017-12-02T04:15:37.544Z,21.87
2017-12-02T04:18:03.711Z,22.07
2017-12-02T04:20:29.907Z,23.77
2017-12-02T04:22:55.991Z,20.37
2017-12-02T04:25:22.068Z,25.80
2017-12-02T04:27:48.161Z,22.73
2017-12-02T04:30:14.282Z,14.53
2017-12-02T04:32:40.360Z,17.97
2017-12-02T04:35:06.437Z,17.90
2017-12-02T04:37:32.543Z,15.03
2017-12-02T04:39:58.572Z,19.90
2017-12-02T04:42:24.663Z,17.93
2017-12-02T04:44:50.740Z,18.53
2017-12-02T04:47:16.853Z,19.47
2017-12-02T04:49:42.944Z,17.07
2017-12-02T04:52:09.061Z,22.20
2017-12-02T04:54:35.140Z,23.50
2017-12-02T04:57:01.305Z,17.00
2017-12-02T04:59:27.438Z,16.90
2017-12-02T05:01:53.569Z,20.43
2017-12-02T05:04:19.680Z,19.20
2017-12-02T05:06:45.755Z,18.27
2017-12-02T05:09:11.851Z,14.00
2017-12-02T05:11:37.931Z,16.77
2017-12-02T05:14:04.096Z,18.30
2017-12-02T05:16:30.200Z,19.27
2017-12-02T05:18:56.236Z,20.37
2017-12-02T05:21:22.321Z,28.80
2017-12-02T05:23:48.397Z,27.60
2017-12-02T05:26:14.465Z,31.27
2017-12-02T05:28:40.579Z,29.27
2017-12-02T05:31:06.644Z,43.10
2017-12-02T05:33:32.728Z,31.33
2017-12-02T05:35:58.756Z,25.27
2017-12-02T05:38:24.876Z,40.23
2017-12-02T05:40:50.961Z,50.10
2017-12-02T05:43:17.015Z,37.47
2017-12-02T05:45:43.116Z,27.00
2017-12-02T05:48:09.260Z,24.53
2017-12-02T05:50:35.344Z,25.17
2017-12-02T05:53:01.477Z,20.27
2017-12-02T05:55:27.576Z,19.50
2017-12-02T05:57:53.624Z,20.10
2017-12-02T06:00:19.769Z,17.37
2017-12-02T06:02:46.220Z,19.13
2017-12-02T06:05:12.308Z,18.00
2017-12-02T06:07:38.440Z,20.20
2017-12-02T06:10:04.488Z,17.30
2017-12-02T06:12:30.560Z,19.43
2017-12-02T06:14:56.720Z,15.90
2017-12-02T06:17:22.796Z,16.80
2017-12-02T06:19:48.889Z,13.67
2017-12-02T06:22:14.969Z,14.73
2017-12-02T06:24:41.027Z,15.07
2017-12-02T06:27:07.139Z,20.97
2017-12-02T06:29:33.244Z,21.17
2017-12-02T06:31:59.335Z,22.17
2017-12-02T06:34:25.472Z,19.40
2017-12-02T06:36:51.616Z,16.90
2017-12-02T06:39:18.263Z,18.03
2017-12-02T06:41:44.384Z,30.53
2017-12-02T06:44:10.500Z,39.07
2017-12-02T06:46:36.606Z,37.00
2017-12-02T06:49:02.748Z,21.13
2017-12-02T06:51:28.867Z,34.07
2017-12-02T06:53:54.996Z,30.57
2017-12-02T06:56:21.086Z,23.50
2017-12-02T06:58:47.152Z,20.87
2017-12-02T07:01:13.283Z,24.83
2017-12-02T07:03:39.411Z,19.90
2017-12-02T07:06:05.531Z,25.63
2017-12-02T07:08:31.631Z,26.33
2017-12-02T07:10:57.783Z,19.77
2017-12-02T07:13:23.916Z,22.33
2017-12-02T07:15:50.063Z,24.57
2017-12-02T07:18:16.187Z,25.00
2017-12-02T07:20:42.212Z,23.60
2017-12-02T07:23:08.350Z,20.10
2017-12-02T07:25:34.488Z,26.47
2017-12-02T07:28:00.574Z,22.67
2017-12-02T07:30:26.698Z,21.13
2017-12-02T07:32:52.779Z,22.27
2017-12-02T07:35:18.904Z,23.43
2017-12-02T07:37:45.012Z,26.27
2017-12-02T07:40:11.108Z,24.20
2017-12-02T07:42:37.308Z,22.63
2017-12-02T07:45:03.504Z,25.90
2017-12-02T07:47:29.595Z,31.03
2017-12-02T07:49:55.693Z,29.27
2017-12-02T07:52:21.720Z,28.23
2017-12-02T07:54:47.839Z,26.67
2017-12-02T07:57:13.888Z,27.60
2017-12-02T07:59:40.052Z,25.30
2017-12-02T08:02:06.160Z,22.20
2017-12-02T08:04:32.321Z,24.47
2017-12-02T08:06:58.347Z,27.67
2017-12-02T08:09:24.399Z,27.40
2017-12-02T08:11:50.539Z,33.27
2017-12-02T08:14:16.635Z,24.93
2017-12-02T08:16:42.737Z,26.47
2017-12-02T08:19:08.847Z,21.37
2017-12-02T08:21:34.894Z,25.30
2017-12-02T08:24:00.961Z,27.87
2017-12-02T08:26:27.103Z,25.63
2017-12-02T08:28:53.209Z,28.90
2017-12-02T08:31:19.336Z,20.47
2017-12-02T08:33:45.430Z,21.73
2017-12-02T08:36:11.513Z,29.17
2017-12-02T08:38:37.607Z,35.70
2017-12-02T08:41:03.720Z,33.57
2017-12-02T08:43:33.753Z,25.53
2017-12-02T08:46:00.675Z,29.47
2017-12-02T08:48:27.700Z,18.83
2017-12-02T08:50:53.847Z,21.83
2017-12-02T08:53:19.982Z,24.40
2017-12-02T08:55:46.043Z,27.77
2017-12-02T08:58:12.136Z,24.90
2017-12-02T09:00:38.232Z,22.43
2017-12-02T09:03:04.373Z,22.37
2017-12-02T09:05:30.445Z,22.60
2017-12-02T09:07:56.530Z,25.43
2017-12-02T09:10:22.610Z,26.17
2017-12-02T09:12:48.700Z,30.57
2017-12-02T09:15:14.783Z,36.80
2017-12-02T09:17:40.867Z,40.63
2017-12-02T09:20:06.992Z,38.27
2017-12-02T09:22:33.087Z,42.47
2017-12-02T09:24:59.164Z,38.10
2017-12-02T09:27:25.244Z,40.87
2017-12-02T09:29:51.368Z,35.43
2017-12-02T09:32:18.065Z,31.50
2017-12-02T09:34:44.152Z,29.07
2017-12-02T09:37:10.302Z,32.63
2017-12-02T09:39:36.363Z,32.07
2017-12-02T09:42:02.462Z,30.43
2017-12-02T09:44:28.580Z,30.00
2017-12-02T09:46:54.650Z,28.50
2017-12-02T09:49:20.701Z,36.50
2017-12-02T09:51:46.764Z,38.13
2017-12-02T09:54:12.875Z,34.67
2017-12-02T09:56:38.945Z,37.00
2017-12-02T09:59:04.988Z,27.47
2017-12-02T10:01:31.148Z,33.97
2017-12-02T10:03:57.226Z,33.10
2017-12-02T10:06:23.307Z,34.50
2017-12-02T10:08:49.424Z,31.13
2017-12-02T10:11:15.515Z,31.57
2017-12-02T10:13:41.670Z,30.23
2017-12-02T10:16:07.794Z,29.27
2017-12-02T10:18:33.927Z,29.87
2017-12-02T10:20:59.959Z,22.20
2017-12-02T10:23:26.126Z,25.30
2017-12-02T10:25:52.365Z,18.20
2017-12-02T10:28:18.468Z,28.20
2017-12-02T10:30:44.551Z,24.20
2017-12-02T10:33:10.706Z,21.33
2017-12-02T10:35:36.852Z,17.33
2017-12-02T10:38:02.956Z,19.00
2017-12-02T10:40:29.141Z,26.17
2017-12-02T10:42:55.434Z,19.77
2017-12-02T10:45:21.520Z,20.40
2017-12-02T10:47:47.644Z,20.33
2017-12-02T10:50:13.822Z,17.63
2017-12-02T10:52:39.941Z,20.20
2017-12-02T10:55:06.016Z,20.90
2017-12-02T10:57:32.112Z,17.73
2017-12-02T10:59:58.243Z,16.27
2017-12-02T11:02:24.308Z,15.73
2017-12-02T11:04:50.476Z,17.53
2017-12-02T11:07:16.575Z,16.80
2017-12-02T11:09:42.657Z,15.37
2017-12-02T11:12:08.724Z,15.17
2017-12-02T11:14:34.914Z,12.43
2017-12-02T11:17:01.057Z,19.03
2017-12-02T11:19:27.166Z,19.37
2017-12-02T11:21:53.326Z,13.40
2017-12-02T11:24:19.499Z,14.63
2017-12-02T11:26:45.722Z,15.70
2017-12-02T11:29:11.924Z,14.10
2017-12-02T11:31:37.980Z,16.83
2017-12-02T11:34:04.124Z,15.70
2017-12-02T11:36:30.280Z,13.57
2017-12-02T11:38:56.424Z,21.13
2017-12-02T11:41:22.547Z,17.63
2017-12-02T11:43:48.668Z,20.10
2017-12-02T11:46:14.752Z,16.47
2017-12-02T11:48:40.957Z,15.50
2017-12-02T11:51:07.195Z,13.37
2017-12-02T11:53:33.400Z,12.37
2017-12-02T11:55:59.549Z,14.37
2017-12-02T11:58:25.674Z,19.43
2017-12-02T12:00:51.838Z,13.00
2017-12-02T12:03:17.958Z,15.87
2017-12-02T12:05:44.082Z,16.60
2017-12-02T12:08:10.235Z,11.93
2017-12-02T12:10:36.353Z,11.80
2017-12-02T12:13:02.557Z,14.47
2017-12-02T12:15:28.713Z,12.63
2017-12-02T12:17:54.914Z,15.67
2017-12-02T12:20:21.027Z,15.53
2017-12-02T12:22:47.149Z,16.03
2017-12-02T12:25:13.285Z,12.57
2017-12-02T12:27:39.392Z,15.23
2017-12-02T12:30:05.549Z,12.70
2017-12-02T12:32:31.733Z,15.80
2017-12-02T12:34:58.653Z,13.60
2017-12-02T12:37:24.776Z,14.23
2017-12-02T12:39:50.904Z,12.40
2017-12-02T12:42:17.044Z,12.77
2017-12-02T12:44:43.181Z,12.03
2017-12-02T12:47:09.309Z,13.30
2017-12-02T12:49:35.548Z,16.73
2017-12-02T12:52:01.700Z,14.23
2017-12-02T12:54:27.867Z,11.50
2017-12-02T12:56:54.016Z,17.03
2017-12-02T12:59:20.298Z,14.40
2017-12-02T13:01:46.465Z,12.27
2017-12-02T13:04:12.656Z,14.63
2017-12-02T13:06:38.856Z,13.20
2017-12-02T13:09:04.964Z,14.20
2017-12-02T13:11:31.120Z,14.27
2017-12-02T13:13:57.268Z,12.87
2017-12-02T13:16:23.360Z,16.50
2017-12-02T13:18:49.539Z,14.10
2017-12-02T13:21:15.643Z,14.37
2017-12-02T13:23:41.755Z,15.20
2017-12-02T13:26:07.929Z,13.93
2017-12-02T13:28:34.071Z,15.50
2017-12-02T13:31:00.220Z,10.90
2017-12-02T13:33:26.323Z,16.40
2017-12-02T13:35:52.459Z,19.17
2017-12-02T13:38:18.571Z,16.50
2017-12-02T13:40:44.708Z,35.63
2017-12-02T13:43:10.833Z,15.43
2017-12-02T13:45:36.965Z,13.20
2017-12-02T13:48:03.102Z,11.97
2017-12-02T13:50:29.391Z,13.03
2017-12-02T13:52:55.607Z,20.50
2017-12-02T13:55:21.843Z,12.90
2017-12-02T13:57:47.905Z,13.50
2017-12-02T14:00:14.044Z,13.47
2017-12-02T14:02:40.200Z,14.63
2017-12-02T14:05:06.508Z,15.53
2017-12-02T14:07:32.638Z,14.90
2017-12-02T14:09:58.784Z,10.73
2017-12-02T14:12:24.884Z,13.90
2017-12-02T14:14:51.061Z,13.93
2017-12-02T14:17:17.102Z,15.57
2017-12-02T14:19:43.244Z,15.60
2017-12-02T14:22:09.330Z,16.80
2017-12-02T14:24:35.467Z,15.00
2017-12-02T14:27:01.612Z,17.70
2017-12-02T14:29:27.737Z,16.97
2017-12-02T14:31:53.908Z,15.00
2017-12-02T14:34:20.039Z,11.97
2017-12-02T14:36:46.156Z,16.73
2017-12-02T14:39:12.357Z,13.30
2017-12-02T14:41:38.453Z,16.00
2017-12-02T14:44:04.584Z,18.13
2017-12-02T14:46:30.677Z,12.90
2017-12-02T14:48:56.781Z,18.50
2017-12-02T14:51:22.968Z,15.13
2017-12-02T14:53:49.052Z,15.00
2017-12-02T14:56:15.168Z,14.37
2017-12-02T14:58:41.273Z,11.20
2017-12-02T15:01:07.391Z,18.00
2017-12-02T15:03:33.687Z,14.47
2017-12-02T15:05:59.802Z,16.57
2017-12-02T15:08:25.996Z,17.03
2017-12-02T15:10:52.121Z,18.10
2017-12-02T15:13:18.246Z,17.37
2017-12-02T15:15:44.365Z,16.70
2017-12-02T15:18:11.359Z,20.07
2017-12-02T15:20:37.600Z,15.43
2017-12-02T15:23:03.776Z,19.03
2017-12-02T15:25:29.900Z,14.83
2017-12-02T15:27:56.092Z,14.57
2017-12-02T15:30:23.060Z,20.63
2017-12-02T15:32:49.211Z,21.00
2017-12-02T15:35:15.297Z,20.87
2017-12-02T15:37:41.469Z,20.73
2017-12-02T15:40:07.592Z,21.70
2017-12-02T15:42:33.696Z,16.43
2017-12-02T15:44:59.892Z,17.73
2017-12-02T15:47:26.036Z,16.57
2017-12-02T15:49:52.206Z,16.87
2017-12-02T15:52:18.331Z,22.40
2017-12-02T15:54:44.512Z,19.83
2017-12-02T15:57:10.783Z,16.73
2017-12-02T15:59:36.946Z,17.70
2017-12-02T16:02:03.090Z,19.20
2017-12-02T16:04:29.209Z,17.33
2017-12-02T16:06:55.340Z,16.97
2017-12-02T16:09:21.568Z,23.03
2017-12-02T16:11:47.739Z,19.20
2017-12-02T16:14:13.960Z,20.07
2017-12-02T16:16:40.220Z,21.40
2017-12-02T16:19:06.307Z,19.23
2017-12-02T16:21:32.428Z,21.10
2017-12-02T16:23:58.592Z,21.33
2017-12-02T16:26:24.644Z,17.80
2017-12-02T16:28:50.792Z,19.20
2017-12-02T16:31:16.965Z,23.97
2017-12-02T16:33:43.146Z,18.60
2017-12-02T16:36:09.293Z,22.70
2017-12-02T16:38:35.384Z,23.40
2017-12-02T16:41:01.603Z,21.77
2017-12-02T16:43:27.797Z,18.30
2017-12-02T16:45:53.921Z,19.30
2017-12-02T16:48:19.984Z,16.40
2017-12-02T16:50:46.299Z,23.30
2017-12-02T16:53:12.473Z,24.07
2017-12-02T16:55:38.553Z,20.70
2017-12-02T16:58:04.761Z,14.77
2017-12-02T17:00:31.016Z,15.27
2017-12-02T17:02:57.137Z,17.03
2017-12-02T17:05:23.264Z,21.40
2017-12-02T17:07:49.492Z,19.47
2017-12-02T17:10:15.657Z,19.37
2017-12-02T17:12:41.745Z,15.77
2017-12-02T17:15:07.960Z,16.93
2017-12-02T17:17:34.123Z,19.90
2017-12-02T17:20:00.338Z,21.37
2017-12-02T17:22:26.466Z,20.10
2017-12-02T17:24:52.556Z,20.10
2017-12-02T17:27:18.649Z,20.77
2017-12-02T17:29:44.784Z,21.30
2017-12-02T17:32:10.942Z,21.50
2017-12-02T17:34:37.025Z,22.93
2017-12-02T17:37:03.168Z,16.90
2017-12-02T17:39:29.319Z,23.90
2017-12-02T17:41:55.499Z,17.90
2017-12-02T17:44:21.636Z,15.03
2017-12-02T17:46:47.723Z,17.17
2017-12-02T17:49:13.842Z,25.57
2017-12-02T17:51:39.916Z,22.23
2017-12-02T17:54:06.058Z,21.77
2017-12-02T17:56:32.371Z,21.63
2017-12-02T17:58:58.495Z,19.60
2017-12-02T18:01:24.637Z,16.50
2017-12-02T18:03:50.758Z,17.67
2017-12-02T18:06:16.922Z,19.87
2017-12-02T18:08:43.068Z,18.70
2017-12-02T18:11:09.205Z,14.90
2017-12-02T18:13:35.350Z,18.20
2017-12-02T18:16:01.480Z,18.30
2017-12-02T18:18:27.660Z,21.03
2017-12-02T18:20:53.757Z,23.23
2017-12-02T18:23:19.863Z,21.50
2017-12-02T18:25:45.988Z,17.93
2017-12-02T18:28:12.232Z,21.00
2017-12-02T18:30:38.367Z,27.63
2017-12-02T18:33:04.518Z,18.73
2017-12-02T18:35:30.649Z,20.23
2017-12-02T18:37:56.779Z,16.40
2017-12-02T18:40:22.900Z,20.50
2017-12-02T18:42:49.052Z,18.43
2017-12-02T18:45:15.131Z,24.03
2017-12-02T18:47:41.270Z,18.83
2017-12-02T18:50:07.366Z,19.20
2017-12-02T18:52:33.528Z,22.53
2017-12-02T18:54:59.657Z,25.87
2017-12-02T18:57:25.794Z,20.93
2017-12-02T18:59:51.940Z,20.80
2017-12-02T19:02:18.156Z,18.90
2017-12-02T19:04:44.270Z,17.97
2017-12-02T19:07:10.458Z,18.53
2017-12-02T19:09:36.629Z,19.20
2017-12-02T19:12:02.820Z,17.30
2017-12-02T19:14:28.969Z,17.03
2017-12-02T19:16:55.175Z,19.37
2017-12-02T19:19:21.348Z,13.70
2017-12-02T19:21:47.569Z,17.07
2017-12-02T19:24:13.659Z,17.80
2017-12-02T19:26:39.809Z,17.33
2017-12-02T19:29:06.052Z,17.47
2017-12-02T19:31:32.205Z,15.97
2017-12-02T19:33:58.501Z,17.63
2017-12-02T19:36:24.636Z,16.37
2017-12-02T19:38:50.774Z,14.93
2017-12-02T19:41:17.127Z,18.63
2017-12-02T19:43:43.353Z,20.00
2017-12-02T19:46:09.538Z,18.40
2017-12-02T19:48:35.700Z,19.97
2017-12-02T19:51:01.895Z,21.03
2017-12-02T19:53:28.074Z,18.00
2017-12-02T19:55:54.215Z,19.93
2017-12-02T19:58:20.407Z,13.87
2017-12-02T20:00:46.547Z,15.80
2017-12-02T20:03:12.808Z,25.17
2017-12-02T20:05:38.972Z,25.80
2017-12-02T20:08:05.117Z,28.60
2017-12-02T20:10:31.365Z,24.03
2017-12-02T20:12:58.267Z,19.10
2017-12-02T20:15:24.541Z,24.20
2017-12-02T20:17:50.798Z,19.27
2017-12-02T20:20:17.223Z,26.53
2017-12-02T20:22:43.505Z,29.00
2017-12-02T20:25:09.723Z,25.00
2017-12-02T20:27:35.949Z,26.33
2017-12-02T20:30:02.122Z,25.47
2017-12-02T20:32:28.450Z,25.40
2017-12-02T20:44:39.737Z,16.23
2017-12-02T20:47:06.036Z,20.83
2017-12-02T20:49:32.348Z,21.60
2017-12-02T20:51:58.537Z,20.33
2017-12-02T20:54:24.801Z,19.13
2017-12-02T20:56:50.957Z,27.53
2017-12-02T20:59:17.136Z,20.50
2017-12-02T21:01:43.493Z,21.57
2017-12-02T21:04:09.726Z,28.50
2017-12-02T21:06:35.925Z,23.37
2017-12-02T21:09:02.156Z,20.37
2017-12-02T21:11:28.372Z,25.40
2017-12-02T21:13:54.590Z,24.63
2017-12-02T21:16:20.982Z,24.17
2017-12-02T21:18:47.157Z,25.73
2017-12-02T21:21:13.488Z,23.60
2017-12-02T21:23:39.727Z,24.97
2017-12-02T21:26:05.966Z,23.50
2017-12-02T21:28:32.190Z,24.23
2017-12-02T21:30:58.350Z,26.03
2017-12-02T21:33:24.594Z,31.57
2017-12-02T21:35:50.783Z,24.00
2017-12-02T21:38:16.984Z,23.97
2017-12-02T21:40:43.345Z,26.80
2017-12-02T21:43:09.520Z,27.77
2017-12-02T21:45:36.585Z,25.50
2017-12-02T21:48:02.781Z,24.00
2017-12-02T21:50:28.869Z,17.87
2017-12-02T21:52:55.013Z,21.47
2017-12-02T21:55:21.145Z,23.33
2017-12-02T21:57:47.216Z,28.60
2017-12-02T22:00:13.425Z,24.53
2017-12-02T22:02:39.531Z,25.70
2017-12-02T22:05:05.768Z,24.67
2017-12-02T22:07:31.884Z,21.73
2017-12-02T22:09:57.975Z,23.70
2017-12-02T22:12:24.109Z,19.50
2017-12-02T22:14:50.292Z,16.73
2017-12-02T22:17:16.432Z,22.90
2017-12-02T22:19:42.568Z,24.40
2017-12-02T22:22:08.705Z,16.77
2017-12-02T22:24:34.881Z,21.93
2017-12-02T22:27:01.000Z,20.47
2017-12-02T22:29:27.166Z,20.23
2017-12-02T22:31:54.960Z,22.87
2017-12-02T22:36:58.737Z,33.20
2017-12-02T22:39:24.809Z,27.80
2017-12-02T22:41:51.033Z,28.60
2017-12-02T22:44:17.168Z,27.00
2017-12-02T22:46:43.422Z,24.60
2017-12-02T22:49:09.568Z,28.60
2017-12-02T22:51:35.762Z,26.93
2017-12-02T22:54:02.884Z,29.27
2017-12-02T22:56:29.060Z,25.33
2017-12-02T22:58:55.317Z,21.20
2017-12-02T23:01:21.528Z,22.47
2017-12-02T23:03:47.839Z,23.43
2017-12-02T23:06:13.960Z,20.00
2017-12-02T23:08:40.247Z,20.10
2017-12-02T23:11:06.489Z,17.03
2017-12-02T23:13:32.594Z,22.87
2017-12-02T23:15:58.806Z,22.37
2017-12-02T23:18:24.981Z,23.53
2017-12-02T23:20:51.306Z,25.47
2017-12-02T23:23:17.435Z,27.43
2017-12-02T23:25:43.561Z,34.47
2017-12-02T23:28:09.737Z,32.30
2017-12-02T23:30:35.904Z,31.20
2017-12-02T23:33:02.036Z,25.40
2017-12-02T23:35:28.158Z,21.77
2017-12-02T23:37:54.279Z,25.37
2017-12-02T23:40:20.410Z,29.33
2017-12-02T23:42:46.739Z,23.47
2017-12-02T23:45:12.903Z,25.87
2017-12-02T23:47:39.092Z,22.30
2017-12-02T23:50:05.239Z,23.77
2017-12-02T23:52:31.364Z,22.10
2017-12-02T23:54:57.549Z,23.17
2017-12-02T23:57:23.675Z,27.73
2017-12-02T23:59:49.819Z,19.70
